Terminal Aerodrome Forecast
Issued by NWS Cleveland, OH

Home | Current Version | Previous Version | Text Only | Print | Product List | Glossary Off
Versions: 1 2 3 4 5 6 7 8 9 10 11 12 13 14 15 16 17 18 19

722
FTUS41 KCLE 111138
TAFCAK
TAF
KCAK 111138Z 1112/1212 28010KT 3SM -SHSN OVC025
      TEMPO 1112/1114 2SM -SHSN OVC015
     FM111600 29010KT 6SM -SHSN OVC035
     FM111800 29012KT P6SM OVC035
     FM120400 23007KT P6SM SCT040 OVC100=

USA.gov is the U.S. government's official web portal to all federal, state and local government web resources and services.